Time;durP1;ratioP1;P1;durP2;ratioP2;P2;SDS_P1;SDS_P2;PMS_P1;PMS_P2;Temp;Humidity;BMP_temperature;BMP_pressure;BME280_temperature;BME280_humidity;BME280_pressure;Samples;Min_cycle;Max_cycle;Signal;HPM_P1;HPM_P2
2021/04/26 00:00:06;;;;;;;1.38;1.10;;;17.40;48.50;;;;;;5074186;28;20166;-69
2021/04/26 00:02:32;;;;;;;2.17;1.10;;;17.30;48.50;;;;;;5055317;28;20181;-68
2021/04/26 00:04:57;;;;;;;2.28;1.00;;;17.30;48.50;;;;;;5073933;28;20202;-69
2021/04/26 00:07:23;;;;;;;1.38;1.00;;;17.30;48.60;;;;;;5039748;28;20587;-68
2021/04/26 00:09:48;;;;;;;1.67;1.45;;;17.30;48.50;;;;;;5072973;28;20173;-68
2021/04/26 00:12:14;;;;;;;1.55;1.10;;;17.30;48.50;;;;;;5074088;28;20181;-68
2021/04/26 00:14:40;;;;;;;1.15;1.02;;;17.30;48.50;;;;;;5073600;28;20201;-68
2021/04/26 00:17:05;;;;;;;2.17;1.10;;;17.30;48.60;;;;;;5073414;28;20215;-68
2021/04/26 00:19:31;;;;;;;1.60;1.27;;;17.30;48.60;;;;;;5073441;28;20649;-68
2021/04/26 00:21:57;;;;;;;1.60;1.05;;;17.30;48.60;;;;;;5039454;28;20223;-69
2021/04/26 00:24:22;;;;;;;1.45;1.25;;;17.30;48.50;;;;;;5073025;28;20218;-68
2021/04/26 00:26:48;;;;;;;1.40;1.10;;;17.30;48.50;;;;;;5073377;28;20171;-68
2021/04/26 00:29:13;;;;;;;1.77;1.10;;;17.30;48.60;;;;;;5055622;28;20369;-68
2021/04/26 00:31:39;;;;;;;1.75;1.40;;;17.20;48.50;;;;;;5072609;28;20166;-67
2021/04/26 00:34:05;;;;;;;2.70;1.25;;;17.20;48.50;;;;;;5073635;28;20167;-67
2021/04/26 00:36:30;;;;;;;2.55;1.15;;;17.20;48.50;;;;;;5073135;28;20202;-67
2021/04/26 00:38:56;;;;;;;1.15;1.08;;;17.20;48.50;;;;;;5072764;28;20174;-68
2021/04/26 00:41:21;;;;;;;1.33;1.05;;;17.20;48.50;;;;;;5073254;28;20221;-68
2021/04/26 00:43:47;;;;;;;2.65;1.17;;;17.20;48.50;;;;;;5072497;28;20540;-67
2021/04/26 00:46:14;;;;;;;2.35;1.50;;;17.20;48.60;;;;;;5073541;28;20261;-68
2021/04/26 00:48:41;;;;;;;1.50;1.10;;;17.20;48.60;;;;;;5073247;28;20190;-69
2021/04/26 00:51:07;;;;;;;1.17;1.08;;;17.20;48.60;;;;;;5055210;28;20170;-67
2021/04/26 00:53:32;;;;;;;1.52;0.80;;;17.20;48.60;;;;;;5072890;28;20162;-68
2021/04/26 00:55:58;;;;;;;1.98;1.00;;;17.20;48.60;;;;;;5038520;28;20170;-68
2021/04/26 00:58:24;;;;;;;2.00;1.00;;;17.20;48.70;;;;;;5038192;28;20653;-68
2021/04/26 01:00:51;;;;;;;1.45;1.13;;;17.20;48.60;;;;;;5055030;28;20170;-68
2021/04/26 01:03:16;;;;;;;1.80;1.00;;;17.20;48.70;;;;;;5073137;28;20190;-68
2021/04/26 01:05:42;;;;;;;0.93;0.80;;;17.10;48.70;;;;;;5053525;28;20674;-67
2021/04/26 01:08:07;;;;;;;1.90;1.13;;;17.10;48.70;;;;;;5073191;28;20170;-68
2021/04/26 01:10:34;;;;;;;1.65;1.10;;;17.10;48.70;;;;;;5054805;28;20174;-68
2021/04/26 01:13:18;;;;;;;0.95;0.95;;;17.10;48.60;;;;;;5054600;28;20171;-68
2021/04/26 01:16:10;;;;;;;1.48;1.15;;;17.10;48.70;;;;;;5072433;28;20185;-69
2021/04/26 01:18:46;;;;;;;2.55;0.90;;;17.10;48.70;;;;;;5068006;28;20182;-69
2021/04/26 01:21:45;;;;;;;1.75;1.23;;;17.10;48.70;;;;;;5072773;28;20249;-69
2021/04/26 01:24:29;;;;;;;0.93;0.90;;;17.10;48.70;;;;;;5072664;28;20289;-68
2021/04/26 01:26:58;;;;;;;1.98;1.00;;;17.10;48.70;;;;;;5072366;28;20163;-68
2021/04/26 01:30:00;;;;;;;1.58;1.10;;;17.10;48.70;;;;;;5072701;28;20336;-67
2021/04/26 01:32:41;;;;;;;1.05;0.88;;;17.10;48.70;;;;;;5026802;28;20186;-67
2021/04/26 01:35:14;;;;;;;1.00;0.93;;;17.10;48.70;;;;;;5054189;28;20227;-67
2021/04/26 01:37:41;;;;;;;1.63;1.30;;;17.10;48.70;;;;;;5055634;28;20181;-67
2021/04/26 01:40:08;;;;;;;1.83;1.25;;;17.00;48.60;;;;;;5054258;28;20177;-68
2021/04/26 01:42:35;;;;;;;1.15;0.98;;;17.00;48.70;;;;;;5021541;28;20170;-67
2021/04/26 01:45:05;;;;;;;1.20;1.10;;;17.00;48.70;;;;;;5038181;28;20693;-68
2021/04/26 01:47:31;;;;;;;1.10;0.93;;;17.00;48.70;;;;;;5054021;28;20665;-69
2021/04/26 01:49:58;;;;;;;0.80;0.80;;;17.00;48.70;;;;;;5038212;28;20619;-67
2021/04/26 01:52:23;;;;;;;2.25;1.35;;;17.00;48.70;;;;;;5038426;28;20178;-68
2021/04/26 01:54:50;;;;;;;1.13;1.02;;;17.00;48.70;;;;;;5053706;28;20649;-68
2021/04/26 01:57:15;;;;;;;2.08;1.30;;;17.00;48.80;;;;;;5038371;28;20171;-68
2021/04/26 01:59:41;;;;;;;1.65;1.30;;;17.00;48.70;;;;;;5037755;28;20182;-68
2021/04/26 02:02:07;;;;;;;1.58;1.23;;;17.00;48.80;;;;;;5037457;28;20167;-69
2021/04/26 02:04:34;;;;;;;1.80;0.90;;;17.00;48.80;;;;;;5071893;28;20214;-68
2021/04/26 02:07:00;;;;;;;1.20;1.10;;;16.90;48.70;;;;;;5038270;28;20265;-68
2021/04/26 02:09:26;;;;;;;2.40;1.10;;;16.90;48.70;;;;;;5037097;28;20210;-67
2021/04/26 02:11:52;;;;;;;2.20;1.40;;;16.90;48.70;;;;;;5037639;28;20213;-68
2021/04/26 02:14:18;;;;;;;1.27;1.00;;;16.90;48.80;;;;;;5054367;28;20213;-68
2021/04/26 02:16:43;;;;;;;1.17;1.08;;;16.90;48.80;;;;;;5055123;28;20584;-68
2021/04/26 02:19:10;;;;;;;1.23;0.88;;;17.00;48.80;;;;;;5058226;28;20185;-68
2021/04/26 02:21:36;;;;;;;0.70;0.70;;;16.90;48.80;;;;;;5041597;28;20511;-69
2021/04/26 02:24:01;;;;;;;1.10;1.00;;;16.90;48.80;;;;;;5057470;28;20197;-69
2021/04/26 02:26:28;;;;;;;1.00;0.90;;;16.90;48.80;;;;;;5075887;28;20174;-68
2021/04/26 02:28:54;;;;;;;1.30;0.85;;;16.90;48.80;;;;;;5075949;28;20226;-67
2021/04/26 02:31:21;;;;;;;1.00;0.90;;;16.90;48.80;;;;;;5075234;28;20536;-67
2021/04/26 02:33:56;;;;;;;1.45;0.88;;;16.90;48.80;;;;;;5041187;28;20179;-66
2021/04/26 02:36:25;;;;;;;2.10;1.00;;;16.90;48.80;;;;;;5057366;28;20543;-68
2021/04/26 02:38:52;;;;;;;1.80;0.98;;;16.80;48.80;;;;;;5041162;28;20171;-67
2021/04/26 02:41:24;;;;;;;1.63;1.00;;;16.90;48.80;;;;;;5058188;28;20652;-68
2021/04/26 02:43:56;;;;;;;1.30;1.10;;;16.90;48.80;;;;;;5040489;28;20253;-68
2021/04/26 02:46:25;;;;;;;0.93;0.93;;;16.90;48.80;;;;;;5041840;28;20576;-68
2021/04/26 02:48:50;;;;;;;2.28;1.20;;;16.80;48.70;;;;;;5057587;28;20568;-67
2021/04/26 02:51:17;;;;;;;1.13;0.90;;;16.80;48.70;;;;;;5040519;28;20253;-68
2021/04/26 02:53:42;;;;;;;1.38;0.80;;;16.80;48.90;;;;;;5040485;28;20214;-67
2021/04/26 02:56:10;;;;;;;1.20;1.10;;;16.80;48.70;;;;;;5040781;28;20210;-68
2021/04/26 02:58:36;;;;;;;1.08;0.82;;;16.80;48.70;;;;;;5040192;28;20626;-68
2021/04/26 03:01:04;;;;;;;1.00;1.00;;;16.80;49.40;;;;;;5075289;28;20181;-69
2021/04/26 03:03:31;;;;;;;1.00;0.90;;;16.80;48.80;;;;;;5040884;28;20236;-67
2021/04/26 03:05:56;;;;;;;0.80;0.80;;;16.80;48.70;;;;;;5056639;28;20635;-68
2021/04/26 03:08:22;;;;;;;1.58;1.08;;;16.80;48.80;;;;;;5057308;28;20179;-68
2021/04/26 03:10:47;;;;;;;0.95;0.88;;;16.80;48.80;;;;;;5057023;28;20175;-67
2021/04/26 03:13:14;;;;;;;1.13;1.02;;;16.80;48.80;;;;;;5074680;28;20618;-68
2021/04/26 03:15:40;;;;;;;2.83;1.10;;;16.80;48.80;;;;;;5057037;28;20182;-68
2021/04/26 03:18:05;;;;;;;1.23;0.90;;;16.80;48.80;;;;;;5040659;28;20173;-68
2021/04/26 03:20:31;;;;;;;0.80;0.80;;;16.70;48.70;;;;;;5039631;28;20185;-68
2021/04/26 03:22:57;;;;;;;1.52;1.10;;;16.70;48.70;;;;;;5075045;28;20179;-68
2021/04/26 03:25:23;;;;;;;0.70;0.70;;;16.70;48.70;;;;;;5039830;28;20216;-69
2021/04/26 03:27:51;;;;;;;1.73;1.30;;;16.70;48.70;;;;;;5055855;28;20661;-67
2021/04/26 03:30:17;;;;;;;0.90;0.80;;;16.70;48.80;;;;;;5040530;28;20174;-67
2021/04/26 03:32:43;;;;;;;1.52;1.25;;;16.70;48.70;;;;;;5056158;28;20167;-67
2021/04/26 03:35:09;;;;;;;1.55;1.05;;;16.70;48.70;;;;;;5040218;28;20224;-67
2021/04/26 03:37:35;;;;;;;0.90;0.90;;;16.60;48.70;;;;;;5039908;28;20622;-67
2021/04/26 03:40:00;;;;;;;1.45;0.80;;;16.70;48.70;;;;;;5039524;28;20171;-68
2021/04/26 03:42:26;;;;;;;1.15;0.80;;;16.70;48.80;;;;;;5056709;28;20694;-68
2021/04/26 03:44:52;;;;;;;3.00;1.17;;;16.70;48.80;;;;;;5056310;28;20399;-68
2021/04/26 03:47:17;;;;;;;3.13;1.25;;;16.70;48.80;;;;;;5039425;28;20697;-67
2021/04/26 03:49:43;;;;;;;3.00;1.30;;;16.70;48.80;;;;;;5074121;28;20223;-68
2021/04/26 03:52:09;;;;;;;1.83;1.13;;;16.60;48.80;;;;;;5074581;28;20174;-67
2021/04/26 03:54:34;;;;;;;1.90;1.23;;;16.60;48.80;;;;;;5055501;28;20178;-68
2021/04/26 03:57:00;;;;;;;1.08;0.98;;;16.60;48.80;;;;;;5056515;28;20166;-69
2021/04/26 03:59:26;;;;;;;1.67;0.95;;;16.60;48.80;;;;;;5039913;28;20632;-69
2021/04/26 04:01:52;;;;;;;0.80;0.80;;;16.60;48.80;;;;;;5038869;28;20711;-68
2021/04/26 04:04:17;;;;;;;1.60;1.20;;;16.60;49.40;;;;;;5056056;28;20214;-67
2021/04/26 04:06:43;;;;;;;2.42;1.10;;;16.60;48.80;;;;;;5039393;28;20617;-67
2021/04/26 04:09:08;;;;;;;0.60;0.60;;;16.60;48.90;;;;;;5055690;28;20175;-67
2021/04/26 04:11:34;;;;;;;0.80;0.80;;;16.60;48.90;;;;;;5039281;28;20644;-67
2021/04/26 04:14:00;;;;;;;1.73;1.00;;;16.60;48.90;;;;;;5039487;28;20608;-68
2021/04/26 04:16:27;;;;;;;1.33;1.23;;;16.60;48.90;;;;;;5073451;28;20683;-67
2021/04/26 04:18:53;;;;;;;0.70;0.70;;;16.50;48.80;;;;;;5023057;28;20200;-67
2021/04/26 04:21:18;;;;;;;1.88;1.20;;;16.60;48.90;;;;;;5039550;28;20621;-68
2021/04/26 04:23:44;;;;;;;2.15;1.10;;;16.60;48.90;;;;;;5054793;28;20175;-68
2021/04/26 04:26:09;;;;;;;1.08;0.82;;;16.50;49.50;;;;;;5073612;28;20261;-68
2021/04/26 04:28:35;;;;;;;1.38;0.75;;;16.50;49.50;;;;;;5052043;28;20223;-68
2021/04/26 04:31:01;;;;;;;0.75;0.75;;;16.50;48.90;;;;;;5053020;28;20246;-68
2021/04/26 04:33:26;;;;;;;0.98;0.90;;;16.50;48.90;;;;;;5052367;28;20167;-67
2021/04/26 04:35:52;;;;;;;1.10;1.00;;;16.50;48.90;;;;;;5051423;28;20171;-67
2021/04/26 04:38:18;;;;;;;1.27;0.90;;;16.60;48.90;;;;;;5035810;28;20171;-67
2021/04/26 04:40:44;;;;;;;0.70;0.70;;;16.50;49.50;;;;;;5052079;28;20179;-67
2021/04/26 04:43:09;;;;;;;1.35;1.25;;;16.50;48.90;;;;;;5051776;28;20232;-68
2021/04/26 04:45:35;;;;;;;1.33;0.80;;;16.50;48.90;;;;;;5053012;28;20681;-68
2021/04/26 04:48:00;;;;;;;2.00;1.02;;;16.50;49.00;;;;;;5053494;28;20171;-68
2021/04/26 04:50:26;;;;;;;1.00;1.00;;;16.50;48.90;;;;;;5034947;28;20180;-68
2021/04/26 04:52:52;;;;;;;1.10;0.95;;;16.50;48.90;;;;;;5051847;28;20171;-67
2021/04/26 04:55:17;;;;;;;1.25;0.88;;;16.50;49.00;;;;;;5051875;28;20171;-68
2021/04/26 04:57:43;;;;;;;1.73;1.20;;;16.50;49.00;;;;;;5051102;28;20185;-68
2021/04/26 05:00:09;;;;;;;1.35;1.08;;;16.50;48.90;;;;;;5053364;28;20232;-68
2021/04/26 05:02:35;;;;;;;1.55;0.70;;;16.50;48.90;;;;;;5051516;28;20175;-68
2021/04/26 05:05:00;;;;;;;0.80;0.80;;;16.50;48.90;;;;;;5052389;28;20210;-67
2021/04/26 05:07:26;;;;;;;1.60;1.02;;;16.60;49.20;;;;;;5053108;28;20581;-68
2021/04/26 05:09:51;;;;;;;1.67;1.00;;;16.70;49.10;;;;;;5052568;28;20267;-68
2021/04/26 05:12:17;;;;;;;1.75;0.85;;;16.80;48.90;;;;;;5052208;28;20171;-67
2021/04/26 05:14:45;;;;;;;1.35;0.82;;;17.10;48.80;;;;;;5052355;28;20570;-68
2021/04/26 05:17:11;;;;;;;0.75;0.75;;;17.30;48.50;;;;;;5051833;28;20177;-68
2021/04/26 05:19:36;;;;;;;1.10;0.85;;;17.60;48.20;;;;;;5050775;28;20251;-68
2021/04/26 05:22:02;;;;;;;1.42;0.70;;;17.90;47.70;;;;;;5052725;28;20680;-65
2021/04/26 05:24:28;;;;;;;0.82;0.80;;;18.30;47.10;;;;;;5051213;28;20252;-65
2021/04/26 05:26:53;;;;;;;1.58;0.88;;;18.50;46.70;;;;;;5050971;28;20543;-66
2021/04/26 05:29:19;;;;;;;0.98;0.82;;;18.70;46.20;;;;;;5051324;28;20352;-65
2021/04/26 05:31:44;;;;;;;0.93;0.82;;;18.70;45.90;;;;;;5052414;28;20179;-65
2021/04/26 05:34:10;;;;;;;0.80;0.75;;;18.70;45.90;;;;;;5052128;28;20536;-65
2021/04/26 05:36:35;;;;;;;2.85;0.85;;;18.60;45.90;;;;;;5052434;28;20171;-65
2021/04/26 05:39:01;;;;;;;1.67;0.80;;;18.50;46.00;;;;;;5050873;28;20173;-66
2021/04/26 05:41:27;;;;;;;0.80;0.60;;;18.50;46.10;;;;;;5051506;28;20216;-67
2021/04/26 05:43:53;;;;;;;1.48;1.00;;;18.50;46.10;;;;;;5051147;28;20623;-66
2021/04/26 05:46:18;;;;;;;1.63;0.90;;;18.50;46.10;;;;;;5052145;28;20229;-67
2021/04/26 05:48:44;;;;;;;1.13;0.90;;;18.50;46.10;;;;;;5052321;28;20521;-66
2021/04/26 05:51:09;;;;;;;1.45;0.82;;;18.50;46.10;;;;;;5053334;28;20193;-67
2021/04/26 05:53:35;;;;;;;1.30;0.82;;;18.50;46.10;;;;;;5054556;28;20175;-67
2021/04/26 05:56:01;;;;;;;1.55;1.00;;;18.60;46.20;;;;;;5056212;28;20186;-66
2021/04/26 05:58:26;;;;;;;1.77;1.05;;;18.60;46.20;;;;;;5056398;28;20190;-66
2021/04/26 06:00:52;;;;;;;2.40;1.00;;;18.60;47.00;;;;;;5055864;28;20214;-74
2021/04/26 06:03:18;;;;;;;4.43;1.20;;;18.60;46.50;;;;;;5056434;28;20179;-71
2021/04/26 06:05:43;;;;;;;4.57;1.42;;;18.60;47.60;;;;;;5038194;28;20264;-65
2021/04/26 06:08:09;;;;;;;4.13;1.23;;;18.50;47.20;;;;;;5055858;28;20172;-68
2021/04/26 06:10:35;;;;;;;3.80;1.23;;;18.50;47.10;;;;;;5054781;28;20309;-71
2021/04/26 06:13:00;;;;;;;3.17;1.23;;;18.50;47.20;;;;;;5056293;28;20203;-72
2021/04/26 06:15:27;;;;;;;2.15;1.05;;;18.40;47.50;;;;;;5055390;28;20279;-64
2021/04/26 06:18:05;;;;;;;3.85;1.52;;;18.40;47.70;;;;;;5056382;28;20198;-73
2021/04/26 06:20:30;;;;;;;3.45;1.20;;;18.50;47.90;;;;;;5039738;28;20178;-73
2021/04/26 06:22:56;;;;;;;3.47;1.25;;;18.50;48.00;;;;;;5055608;28;20534;-70
2021/04/26 06:25:22;;;;;;;2.58;1.33;;;18.50;48.00;;;;;;5054635;28;20295;-70
2021/04/26 06:27:47;;;;;;;2.97;1.30;;;18.60;48.00;;;;;;5054602;28;20250;-72
2021/04/26 06:30:13;;;;;;;4.13;1.23;;;18.60;48.00;;;;;;5057433;28;20185;-71
2021/04/26 06:32:39;;;;;;;2.78;1.50;;;18.60;47.80;;;;;;5057825;28;20182;-73
2021/04/26 06:35:05;;;;;;;4.63;1.15;;;18.60;48.10;;;;;;5041293;28;20189;-71
2021/04/26 06:37:30;;;;;;;4.43;1.35;;;18.60;48.10;;;;;;5074915;28;20174;-71
2021/04/26 06:39:56;;;;;;;1.98;1.17;;;18.50;48.80;;;;;;5075693;28;20235;-70
2021/04/26 06:42:23;;;;;;;4.90;1.40;;;18.50;48.40;;;;;;5075155;28;20261;-64
2021/04/26 06:44:49;;;;;;;4.40;1.05;;;18.40;48.40;;;;;;5057251;28;20236;-66
2021/04/26 06:47:15;;;;;;;3.65;1.20;;;18.40;48.40;;;;;;5057757;28;20202;-68
2021/04/26 06:49:41;;;;;;;5.22;1.35;;;18.40;48.50;;;;;;5056944;28;20630;-69
2021/04/26 06:52:06;;;;;;;4.63;1.40;;;18.40;48.60;;;;;;5075478;28;20205;-71
2021/04/26 06:54:32;;;;;;;2.53;1.48;;;18.40;48.50;;;;;;5057281;28;20170;-75
2021/04/26 06:56:57;;;;;;;3.42;1.40;;;18.40;48.50;;;;;;5075025;28;20166;-71
2021/04/26 06:59:23;;;;;;;2.08;0.98;;;18.40;48.50;;;;;;5057472;28;20217;-69
2021/04/26 07:01:48;;;;;;;4.60;1.55;;;18.40;48.50;;;;;;5074878;28;20175;-71
2021/04/26 07:04:14;;;;;;;6.53;1.42;;;18.30;48.50;;;;;;5039037;28;20560;-67
2021/04/26 07:06:40;;;;;;;4.45;1.80;;;18.30;48.80;;;;;;5057127;28;20257;-67
2021/04/26 07:09:05;;;;;;;2.28;1.30;;;18.30;48.60;;;;;;5057452;28;20163;-67
2021/04/26 07:11:31;;;;;;;3.70;1.10;;;18.30;48.70;;;;;;5056532;28;20651;-67
2021/04/26 07:13:57;;;;;;;2.22;1.05;;;18.30;48.70;;;;;;5056986;28;20182;-67
2021/04/26 07:16:22;;;;;;;3.58;1.10;;;18.30;48.60;;;;;;5040744;28;20179;-67
2021/04/26 07:18:48;;;;;;;2.45;0.90;;;18.30;48.60;;;;;;5056269;28;20194;-67
2021/04/26 07:21:14;;;;;;;3.47;1.17;;;18.30;48.50;;;;;;5074805;28;20277;-68
2021/04/26 07:23:39;;;;;;;2.22;1.20;;;18.30;48.40;;;;;;5074512;28;20179;-68
2021/04/26 07:26:05;;;;;;;2.97;1.38;;;18.40;49.10;;;;;;5056211;28;20293;-67
2021/04/26 07:28:31;;;;;;;5.43;1.50;;;18.30;48.40;;;;;;5074334;28;20218;-68
2021/04/26 07:30:57;;;;;;;1.70;1.00;;;18.30;48.40;;;;;;5074658;28;20198;-67
2021/04/26 07:33:22;;;;;;;1.55;0.93;;;18.30;48.50;;;;;;5074296;28;20178;-68
2021/04/26 07:35:48;;;;;;;1.17;1.00;;;18.30;48.60;;;;;;5074371;28;20182;-68
2021/04/26 07:38:13;;;;;;;2.00;1.17;;;18.20;48.60;;;;;;5074772;28;20174;-68
2021/04/26 07:40:39;;;;;;;2.38;0.95;;;18.20;48.70;;;;;;5073463;28;20265;-68
2021/04/26 07:43:05;;;;;;;2.15;1.10;;;18.30;48.80;;;;;;5056421;28;20178;-68
2021/04/26 07:45:30;;;;;;;1.67;1.10;;;18.30;49.30;;;;;;5073808;28;20270;-68
2021/04/26 07:47:57;;;;;;;3.45;1.23;;;18.30;48.70;;;;;;5055970;28;20175;-68
2021/04/26 07:50:23;;;;;;;2.67;1.00;;;18.30;48.60;;;;;;5074444;28;20174;-70
2021/04/26 07:52:48;;;;;;;3.20;0.98;;;18.30;48.60;;;;;;5073549;28;20288;-70
2021/04/26 07:55:14;;;;;;;2.83;1.10;;;18.30;48.60;;;;;;5074112;28;20622;-68
2021/04/26 07:57:40;;;;;;;1.27;1.02;;;18.30;48.70;;;;;;5055835;28;20511;-69
2021/04/26 08:00:06;;;;;;;1.20;1.00;;;18.30;48.70;;;;;;5038577;28;20180;-68
2021/04/26 08:02:32;;;;;;;1.35;0.80;;;18.30;48.70;;;;;;5055632;28;20186;-68
2021/04/26 08:04:58;;;;;;;1.52;1.15;;;18.20;48.70;;;;;;5073811;28;20256;-68
2021/04/26 08:07:23;;;;;;;1.98;0.85;;;18.20;48.80;;;;;;5073647;28;20183;-68
2021/04/26 08:09:49;;;;;;;1.92;1.17;;;18.20;49.60;;;;;;5073748;28;20170;-68
2021/04/26 08:12:14;;;;;;;1.75;0.95;;;18.30;48.90;;;;;;5056024;28;20222;-68
2021/04/26 08:14:40;;;;;;;4.15;1.20;;;18.30;48.90;;;;;;5072618;28;20171;-68
2021/04/26 08:17:06;;;;;;;1.20;0.80;;;18.30;48.80;;;;;;5056087;28;20243;-68
2021/04/26 08:19:31;;;;;;;1.77;1.05;;;18.30;48.80;;;;;;5038886;28;20170;-68
2021/04/26 08:21:57;;;;;;;1.27;0.68;;;18.30;48.80;;;;;;5055385;28;20197;-68
2021/04/26 08:24:22;;;;;;;1.77;0.80;;;18.30;48.80;;;;;;5055756;28;20604;-69
2021/04/26 08:26:48;;;;;;;1.05;0.70;;;18.30;48.80;;;;;;5073290;28;20694;-67
2021/04/26 08:29:14;;;;;;;0.70;0.70;;;18.30;48.80;;;;;;5038393;28;20230;-67
2021/04/26 08:31:39;;;;;;;0.88;0.80;;;18.30;48.80;;;;;;5055446;28;20509;-68
2021/04/26 08:34:05;;;;;;;1.30;0.98;;;18.30;48.80;;;;;;5055390;28;20182;-67
2021/04/26 08:36:30;;;;;;;1.80;0.98;;;18.30;48.90;;;;;;5054643;28;20179;-68
2021/04/26 08:38:56;;;;;;;2.40;1.10;;;18.30;48.80;;;;;;5073366;28;20182;-68
2021/04/26 08:41:22;;;;;;;0.88;0.88;;;18.30;48.80;;;;;;5055538;28;20171;-68
2021/04/26 08:43:47;;;;;;;0.93;0.73;;;18.30;48.80;;;;;;5072344;28;20176;-69
2021/04/26 08:46:13;;;;;;;0.88;0.77;;;18.30;48.80;;;;;;5055379;28;20217;-68
2021/04/26 08:48:39;;;;;;;1.50;0.90;;;18.30;48.80;;;;;;5054993;28;20175;-67
2021/04/26 08:51:05;;;;;;;1.83;0.82;;;18.30;48.80;;;;;;5054899;28;20167;-68
2021/04/26 08:53:31;;;;;;;1.00;0.68;;;18.30;48.80;;;;;;5055204;28;20163;-67
2021/04/26 08:55:57;;;;;;;2.60;0.85;;;18.40;48.80;;;;;;5038076;28;20579;-67
2021/04/26 08:58:23;;;;;;;1.13;0.80;;;18.40;48.70;;;;;;5038758;28;20198;-69
2021/04/26 09:00:48;;;;;;;1.70;0.82;;;18.40;48.70;;;;;;5055117;28;20199;-68
2021/04/26 09:03:14;;;;;;;1.17;0.80;;;18.40;48.70;;;;;;5038001;28;20244;-68
2021/04/26 09:05:40;;;;;;;1.15;0.98;;;18.40;48.70;;;;;;5054656;28;20562;-68
2021/04/26 09:08:10;;;;;;;0.63;0.60;;;18.40;48.70;;;;;;5055238;28;20167;-68
2021/04/26 09:10:50;;;;;;;1.13;0.85;;;18.40;48.60;;;;;;5072105;28;20171;-67
2021/04/26 09:13:38;;;;;;;1.05;0.70;;;18.40;48.60;;;;;;5073122;28;20604;-67
2021/04/26 09:16:05;;;;;;;0.68;0.60;;;18.40;48.60;;;;;;5072926;28;20173;-68
2021/04/26 09:18:43;;;;;;;1.73;1.23;;;18.40;48.60;;;;;;5071923;28;20257;-68
2021/04/26 09:21:12;;;;;;;1.52;0.80;;;18.40;48.60;;;;;;5072805;28;20163;-68
2021/04/26 09:23:38;;;;;;;0.68;0.68;;;18.40;48.60;;;;;;5054365;28;20178;-68
2021/04/26 09:26:03;;;;;;;2.22;1.17;;;18.50;48.60;;;;;;5053745;28;20210;-68
2021/04/26 09:28:29;;;;;;;2.05;0.80;;;18.50;48.60;;;;;;5054397;28;20226;-67
2021/04/26 09:30:58;;;;;;;1.45;0.70;;;18.50;48.60;;;;;;5072757;28;20258;-67
2021/04/26 09:33:40;;;;;;;1.88;0.65;;;18.50;48.60;;;;;;5037647;28;20651;-67
2021/04/26 09:36:20;;;;;;;1.90;0.90;;;18.50;48.60;;;;;;5072627;28;20178;-67
2021/04/26 09:38:46;;;;;;;0.65;0.60;;;18.60;48.60;;;;;;5071854;28;20173;-68
2021/04/26 09:41:19;;;;;;;1.02;0.60;;;18.50;48.60;;;;;;5054784;28;20257;-69
2021/04/26 09:44:11;;;;;;;1.45;0.90;;;18.60;48.60;;;;;;5054373;28;20508;-68
2021/04/26 09:46:43;;;;;;;1.15;1.00;;;18.60;48.60;;;;;;5071811;28;20212;-68
2021/04/26 09:49:09;;;;;;;1.20;0.80;;;18.60;48.60;;;;;;5054671;28;20166;-70
2021/04/26 09:51:35;;;;;;;1.17;0.73;;;18.60;48.60;;;;;;5072264;28;20189;-67
2021/04/26 09:54:01;;;;;;;1.15;0.60;;;18.60;48.60;;;;;;5053933;28;20626;-66
2021/04/26 09:56:41;;;;;;;0.70;0.70;;;18.60;48.60;;;;;;5072533;28;20236;-68
2021/04/26 09:59:07;;;;;;;1.08;0.75;;;18.60;48.60;;;;;;5054981;28;20577;-68
2021/04/26 10:01:33;;;;;;;1.20;0.70;;;18.60;48.60;;;;;;5071425;28;20266;-68
2021/04/26 10:03:59;;;;;;;1.35;0.80;;;18.60;48.60;;;;;;5037803;28;20221;-68
2021/04/26 10:06:24;;;;;;;0.90;0.75;;;18.60;48.60;;;;;;5053912;28;20216;-68
2021/04/26 10:08:52;;;;;;;0.73;0.68;;;18.60;49.20;;;;;;5037799;28;20649;-68
2021/04/26 10:11:18;;;;;;;0.85;0.80;;;18.60;48.50;;;;;;5038023;28;20167;-68
2021/04/26 10:13:44;;;;;;;1.35;0.63;;;18.60;48.50;;;;;;5037118;28;20174;-68
2021/04/26 10:16:16;;;;;;;1.75;0.75;;;18.70;48.50;;;;;;5037781;28;20179;-68
2021/04/26 10:18:42;;;;;;;1.40;0.75;;;18.70;48.50;;;;;;5037833;28;20521;-76
2021/04/26 10:21:17;;;;;;;1.02;0.70;;;18.70;48.40;;;;;;5053774;28;20532;-69
2021/04/26 10:23:44;;;;;;;2.08;0.77;;;18.70;48.50;;;;;;5071855;28;20178;-72
2021/04/26 10:26:49;;;;;;;1.17;1.05;;;18.80;48.60;;;;;;5037945;28;20224;-69
2021/04/26 10:29:24;;;;;;;1.05;0.80;;;18.80;48.70;;;;;;4997968;28;20235;-68
2021/04/26 10:31:59;;;;;;;0.60;0.60;;;18.80;48.70;;;;;;5041737;28;20189;-75
2021/04/26 10:34:33;;;;;;;0.55;0.55;;;18.90;48.80;;;;;;5051538;28;20224;-68
2021/04/26 10:37:01;;;;;;;0.50;0.50;;;18.90;48.80;;;;;;5035674;28;20175;-68
2021/04/26 10:39:27;;;;;;;1.33;0.90;;;18.90;48.80;;;;;;5054617;28;20167;-69
2021/04/26 10:41:58;;;;;;;1.30;0.77;;;18.90;48.80;;;;;;5053986;28;20182;-73
2021/04/26 10:44:36;;;;;;;0.95;0.55;;;18.90;48.80;;;;;;5054537;28;20230;-70
2021/04/26 10:47:15;;;;;;;1.10;0.60;;;18.90;48.80;;;;;;5055822;28;20540;-69
2021/04/26 10:49:41;;;;;;;0.50;0.50;;;18.90;48.80;;;;;;5054773;28;20308;-67
2021/04/26 10:52:30;;;;;;;1.55;0.70;;;18.90;48.80;;;;;;5037667;28;20265;-76
2021/04/26 10:54:57;;;;;;;1.23;0.68;;;18.90;48.90;;;;;;5044455;28;20191;-63
2021/04/26 10:57:42;;;;;;;0.88;0.77;;;18.90;49.40;;;;;;5037248;28;20729;-63
2021/04/26 11:00:31;;;;;;;0.65;0.65;;;18.80;48.80;;;;;;5054419;28;20170;-74
2021/04/26 11:03:00;;;;;;;1.15;0.60;;;18.80;48.60;;;;;;5041455;28;20187;-64
2021/04/26 11:05:27;;;;;;;1.40;0.70;;;18.80;48.40;;;;;;5053759;28;20685;-64
2021/04/26 11:08:03;;;;;;;2.75;0.95;;;18.80;48.30;;;;;;5021057;28;20168;-68
2021/04/26 11:10:28;;;;;;;1.42;0.60;;;18.80;48.30;;;;;;5037831;28;20193;-68
2021/04/26 11:12:58;;;;;;;1.48;0.57;;;18.80;48.30;;;;;;5054978;28;20630;-69
2021/04/26 11:15:24;;;;;;;1.75;0.70;;;18.80;48.20;;;;;;5053729;28;20252;-69
2021/04/26 11:17:50;;;;;;;1.33;0.93;;;18.80;48.20;;;;;;5052885;28;20171;-68
2021/04/26 11:20:21;;;;;;;0.80;0.60;;;18.80;48.20;;;;;;5037125;28;20167;-69
2021/04/26 11:22:46;;;;;;;1.73;0.93;;;18.80;48.10;;;;;;5054701;28;20163;-68
2021/04/26 11:25:40;;;;;;;0.70;0.70;;;18.80;48.00;;;;;;5019910;28;20217;-68
2021/04/26 11:28:11;;;;;;;2.50;0.80;;;18.80;47.90;;;;;;5056206;28;20222;-66
2021/04/26 11:30:37;;;;;;;0.77;0.70;;;18.80;47.90;;;;;;5074566;28;20277;-68
2021/04/26 11:33:07;;;;;;;2.70;0.60;;;18.80;47.70;;;;;;5056236;28;20257;-67
2021/04/26 11:35:34;;;;;;;1.42;0.68;;;18.80;47.70;;;;;;5040639;28;20253;-67
2021/04/26 11:38:01;;;;;;;1.58;0.88;;;18.80;47.60;;;;;;5074064;28;20263;-69
2021/04/26 11:40:28;;;;;;;1.00;0.80;;;18.80;47.70;;;;;;5074695;28;20206;-69
2021/04/26 11:43:07;;;;;;;0.85;0.70;;;18.90;47.70;;;;;;5056770;28;20599;-68
2021/04/26 11:45:33;;;;;;;1.17;0.50;;;18.90;47.60;;;;;;5039720;28;20205;-68
2021/04/26 11:47:59;;;;;;;1.67;0.70;;;18.90;47.70;;;;;;5056634;28;20167;-69
2021/04/26 11:50:24;;;;;;;1.30;0.60;;;19.00;47.80;;;;;;5056090;28;20652;-68
2021/04/26 11:52:50;;;;;;;1.42;0.80;;;19.00;47.80;;;;;;5055661;28;20174;-66
2021/04/26 11:55:17;;;;;;;1.52;0.60;;;19.00;47.80;;;;;;5074244;28;20174;-68
2021/04/26 11:57:43;;;;;;;0.95;0.80;;;19.10;47.90;;;;;;5056025;28;20174;-68
2021/04/26 12:00:14;;;;;;;1.08;0.93;;;19.10;48.00;;;;;;5055742;28;20194;-69
2021/04/26 12:02:50;;;;;;;2.28;0.82;;;19.10;48.00;;;;;;5056164;28;20533;-76
2021/04/26 12:05:18;;;;;;;1.83;0.88;;;19.10;48.00;;;;;;5024300;28;20313;-64
2021/04/26 12:07:45;;;;;;;4.20;1.27;;;19.10;47.90;;;;;;5073343;28;20162;-65
2021/04/26 12:10:21;;;;;;;3.92;0.95;;;19.10;47.80;;;;;;5056467;28;20312;-65
2021/04/26 12:12:47;;;;;;;1.08;0.80;;;19.10;47.70;;;;;;5056160;28;20166;-61
2021/04/26 12:15:17;;;;;;;1.92;0.98;;;19.10;47.70;;;;;;5073301;28;20179;-68
2021/04/26 12:17:48;;;;;;;3.65;0.82;;;19.10;47.60;;;;;;5055800;28;20175;-69
2021/04/26 12:20:25;;;;;;;2.60;0.82;;;19.10;48.30;;;;;;5038831;28;20931;-69
2021/04/26 12:22:55;;;;;;;1.70;0.90;;;19.10;47.60;;;;;;5055652;28;20162;-69
2021/04/26 12:25:22;;;;;;;1.45;0.70;;;19.20;47.60;;;;;;5055981;28;20202;-69
2021/04/26 12:27:57;;;;;;;1.02;0.70;;;19.20;47.70;;;;;;5072615;28;20171;-69
2021/04/26 12:30:23;;;;;;;1.77;0.60;;;19.20;47.60;;;;;;5039420;28;20170;-69
2021/04/26 12:32:49;;;;;;;1.70;0.80;;;19.20;47.60;;;;;;5055331;28;20171;-68
2021/04/26 12:35:17;;;;;;;1.55;0.70;;;19.20;47.60;;;;;;5055168;28;20166;-69
2021/04/26 12:37:46;;;;;;;2.03;1.00;;;19.20;47.70;;;;;;5056088;28;20167;-68
2021/04/26 12:40:19;;;;;;;3.25;1.25;;;19.20;47.70;;;;;;5039667;28;20171;-69
2021/04/26 12:42:50;;;;;;;1.17;0.60;;;19.20;47.70;;;;;;5072756;28;20171;-70
2021/04/26 12:45:21;;;;;;;1.92;0.60;;;19.20;47.70;;;;;;5039166;28;20692;-69
2021/04/26 12:48:00;;;;;;;0.95;0.50;;;19.30;47.80;;;;;;5066513;28;20199;-69
2021/04/26 12:50:39;;;;;;;1.90;0.82;;;19.20;47.80;;;;;;5075260;28;20181;-69